x

Nantucket Sound (44020) Wave Buoy

11:50pm - Mon 26th Jan 2015 All times are EST. -5 hours from GMT.

  • Sig Wave height 8.9ft
  • Swell Direction
  • Peak Period 6s
  • Average Period 5s
  • Wind
    45mph, 56mph gusts
  • Sea Temp 39°f
  • Air Temp 32°f
  • Sea Pressure 998.7mb
  • Nantucket Sound
  • Nantucket Sound

More Historic Weather Station data

Upgrade to MSW Pro to gain access to the past 30 days of data for over 8000 Wavebouys and Weather Stations around the globe.

Join Pro

Comparision Forecast

View Surf forecast
   
Mon 01/26 11:50pm 9ft 6s 5s 45 56 mph 998.7mb 39f 32f
10:50pm 8ft 6s 5s 45 54 mph 1001.3mb 39f 32f
9:50pm 7.5ft 6s 5s 40 49 mph 1004.4mb 39f 33f
8:50pm 7ft 5s 5s 40 47 mph 1006mb 39f 33f
7:50pm  -   -   -  36 45 mph 1008.9mb 38f 33f
6:50pm 6ft 4s 4s 34 43 mph 1010.6mb 37f 33f
5:50pm 5ft 6s 4s 34 38 mph 1011.9mb 37f 32f
4:50pm 4.5ft 5s 4s 29 36 mph 1012.6mb 37f 33f
3:50pm 4.5ft 5s 4s 29 34 mph 1012.9mb 36f 33f
2:50pm 4ft 4s 4s 27 31 mph 1013.4mb 36f 32f
1:50pm 3.5ft 5s 4s 27 29 mph 1014.2mb 37f 31f
12:50pm 3.5ft 5s 4s 25 29 mph 1015.3mb 37f 31f
11:50am 3ft 4s 4s 22 27 mph 1016.3mb 37f 32f
10:50am 2.5ft 4s 4s 20 25 mph 1017.6mb 37f 32f
9:50am 2.5ft 3s 3s 22 27 mph 1017.3mb 38f 32f
8:50am 2ft 3s 3s 20 25 mph 1017.5mb 37f 32f
7:50am 2ft 3s 3s 18 22 mph 1018mb 37f 31f
6:50am 2.5ft 3s 3s 16 20 mph 1017.9mb 36f 30f
5:50am 2ft 3s 3s 18 22 mph 1017.3mb 36f 28f
4:50am 2ft 3s 3s 18 22 mph 1016.9mb 35f 27f
3:50am 2.5ft 4s 3s 18 22 mph 1017.4mb 35f 27f
2:50am 2.5ft 4s 4s 20 25 mph 1016.9mb 35f 26f
1:50am 2.5ft 3s 3s 20 25 mph 1016.6mb 36f 27f
12:50am 2ft 3s 3s 18 22 mph 1016.4mb 36f 29f
Sun 01/25 11:50pm 1.6ft 3s 3s 16 22 mph 1015.5mb 36f 30f
10:50pm 1.6ft 3s 3s 13 16 mph 1014.9mb 37f 31f
9:50pm 2ft 3s 3s 18 20 mph 1013.6mb 37f 31f
8:50pm 2ft 3s 3s 20 25 mph 1012.5mb 37f 32f
7:50pm 2.5ft 4s 4s 20 22 mph 1011.9mb 37f 33f
6:50pm 3ft 5s 4s 25 29 mph 1010.5mb 37f 34f
5:50pm 2.5ft 5s 4s 20 22 mph 1008.8mb 37f 35f
4:50pm 2.5ft 4s 4s 20 25 mph 1007.3mb 37f 36f
3:50pm 2.5ft 4s 4s 20 25 mph 1005.6mb 37f 37f
2:50pm 2.5ft 4s 4s 20 22 mph 1004.8mb 37f 37f
1:50pm 2.5ft 4s 3s 20 25 mph 1003.3mb 37f 37f
12:50pm 3ft 4s 3s 22 25 mph 1002.4mb 38f 38f
11:50am 2.5ft 3s 3s 25 31 mph 1002.6mb 38f 38f
10:50am 2.5ft 4s 3s 25 31 mph 1002.3mb 38f 38f
9:50am 2.5ft 4s 3s 20 22 mph 1002.1mb 38f 37f
8:50am 2.5ft 4s 3s 22 27 mph 1001.2mb 38f 37f
7:50am 3ft 5s 4s 22 27 mph 1000.2mb 38f 36f
6:50am 3.5ft 5s 4s 22 29 mph 998.9mb 38f 36f
5:50am 3.5ft 5s 4s 25 29 mph 997.8mb 37f 35f
4:50am 3.5ft 5s 4s 22 29 mph 997.3mb 37f 35f
3:50am 2.5ft 4s 4s 22 29 mph 996.1mb 36f 34f
2:50am 2.5ft 3s 4s 22 25 mph 995.2mb 36f 35f
1:50am 2.5ft 3s 3s 20 22 mph 994.5mb 37f 36f
12:50am 2.5ft 3s 3s 22 25 mph 993mb 37f 36f
Sat 01/24 11:50pm 2.5ft 3s 3s 20 25 mph 991.6mb 38f 35f
10:50pm 3ft 4s 3s 25 29 mph 990.4mb 38f 35f
9:50pm 3.5ft 4s 4s 22 27 mph 989mb 38f 34f
8:50pm 3.5ft 4s 4s 25 29 mph 987.9mb 38f 34f
7:50pm 4ft 4s 4s 29 34 mph 985.8mb 38f 36f
6:50pm 4ft 4s 4s 27 31 mph 984.1mb 38f 38f
5:50pm 5ft 5s 4s 25 31 mph 982.9mb 38f 39f
4:50pm 5ft 5s 4s 31 38 mph 980.9mb 37f 38f
3:50pm 4ft 4s 4s 29 34 mph 983.4mb 37f 38f
2:50pm 4ft 4s 4s 34 40 mph 984.9mb 36f 38f
1:50pm 3.5ft 4s 4s 29 34 mph 984.8mb 36f 38f
12:50pm 3.5ft 4s 4s 22 27 mph 989.9mb 36f 39f
11:50am 2.5ft 4s 4s 22 27 mph 993.6mb 36f 39f
10:50am 2ft 4s 4s 20 25 mph 997.3mb 37f 38f
9:50am 1ft 3s 3s 18 22 mph 1000.6mb 37f 38f
8:50am 0.7ft  -  3s 16 18 mph 1003.8mb 38f 37f
7:50am 0.7ft  -  3s 9 11 mph 1005.8mb 37f 35f
6:50am 0.7ft  -  3s 4 7 mph 1007.4mb 37f 34f
5:50am 0.7ft  -  3s 11
mph
1009.9mb 37f 34f
4:50am 0.7ft  -  3s 18 20 mph 1010mb 36f 37f
3:50am 0.7ft  -  3s 9
mph
1010.9mb 36f 37f
2:50am 1ft 10s 4s 11 16 mph 1011.8mb 36f 37f
1:50am 1.3ft 10s 4s 11 13 mph 1013.4mb 36f 37f
12:50am 1ft 9s 4s 11 13 mph 1014.1mb 36f 37f
Fri 01/23 11:50pm 1.3ft 3s 3s 11 13 mph 1014.8mb 36f 37f
10:50pm 1.3ft 3s 3s 13 16 mph 1016mb 37f 37f
9:50pm 1.6ft 3s 3s 16 18 mph 1016.5mb 37f 37f
8:50pm 2ft 3s 3s 18 22 mph 1017.4mb 38f 37f
7:50pm 2.5ft 4s 3s 20 22 mph 1018.1mb 39f 37f